createdAt,value
2024-03-12T00:01:48.772Z,31.10
2024-03-12T00:04:19.929Z,36.70
2024-03-12T00:06:50.141Z,31.30
2024-03-12T00:09:27.084Z,31.80
2024-03-12T00:12:03.139Z,32.70
2024-03-12T00:14:39.335Z,30.90
2024-03-12T00:17:16.178Z,28.00
2024-03-12T00:19:51.721Z,30.10
2024-03-12T00:22:48.940Z,31.40
2024-03-12T00:25:22.580Z,32.90
2024-03-12T00:27:58.372Z,32.00
2024-03-12T00:30:46.635Z,28.70
2024-03-12T00:33:30.963Z,29.10
2024-03-12T00:36:06.175Z,29.70
2024-03-12T00:38:53.080Z,30.70
2024-03-12T00:41:36.842Z,28.60
2024-03-12T00:44:21.486Z,28.30
2024-03-12T00:47:01.740Z,29.00
2024-03-12T00:49:35.546Z,27.30
2024-03-12T00:52:07.210Z,29.20
2024-03-12T00:54:47.700Z,27.60
2024-03-12T00:57:17.682Z,27.90
2024-03-12T00:59:45.449Z,28.80
2024-03-12T01:02:18.556Z,30.80
2024-03-12T01:04:51.538Z,26.60
2024-03-12T01:07:20.606Z,28.50
2024-03-12T01:09:54.044Z,27.00
2024-03-12T01:12:31.124Z,28.50
2024-03-12T01:15:10.558Z,25.80
2024-03-12T01:18:40.269Z,28.20
2024-03-12T01:21:15.301Z,26.60
2024-03-12T01:23:57.088Z,25.10
2024-03-12T01:26:36.111Z,28.80
2024-03-12T01:29:04.799Z,23.30
2024-03-12T01:31:37.479Z,29.80
2024-03-12T01:34:17.945Z,23.70
2024-03-12T01:36:51.319Z,25.50
2024-03-12T01:39:27.930Z,24.80
2024-03-12T01:42:01.211Z,24.40
2024-03-12T01:44:43.821Z,23.90
2024-03-12T01:47:26.373Z,24.10
2024-03-12T01:49:59.517Z,28.30
2024-03-12T01:52:37.215Z,27.90
2024-03-12T01:55:20.098Z,24.30
2024-03-12T01:57:53.405Z,26.00
2024-03-12T02:00:26.913Z,26.20
2024-03-12T02:03:10.670Z,25.60
2024-03-12T02:05:43.928Z,23.50
2024-03-12T02:08:24.231Z,24.60
2024-03-12T02:10:53.653Z,23.30
2024-03-12T02:13:47.104Z,22.00
2024-03-12T02:16:16.431Z,24.80
2024-03-12T02:18:52.829Z,23.40
2024-03-12T02:21:25.585Z,21.50
2024-03-12T02:24:03.966Z,25.50
2024-03-12T02:26:35.626Z,25.10
2024-03-12T02:29:14.537Z,21.00
2024-03-12T02:31:47.839Z,23.30
2024-03-12T02:34:21.028Z,24.00
2024-03-12T02:39:19.994Z,19.90
2024-03-12T02:41:50.158Z,27.00
2024-03-12T02:44:18.741Z,23.00
2024-03-12T02:46:51.216Z,21.60
2024-03-12T02:49:25.226Z,24.90
2024-03-12T02:52:05.737Z,24.10
2024-03-12T02:54:38.676Z,22.80
2024-03-12T02:57:14.731Z,22.90
2024-03-12T02:59:42.746Z,23.40
2024-03-12T03:02:14.031Z,25.50
2024-03-12T03:04:48.366Z,24.50
2024-03-12T03:07:22.395Z,25.80
2024-03-12T03:09:55.606Z,25.90
2024-03-12T03:12:24.840Z,22.90
2024-03-12T03:14:55.273Z,25.70
2024-03-12T03:17:23.269Z,22.30
2024-03-12T03:19:51.238Z,22.00
2024-03-12T03:22:21.065Z,25.10
2024-03-12T03:24:48.982Z,23.00
2024-03-12T03:27:18.626Z,22.30
2024-03-12T03:29:47.211Z,24.30
2024-03-12T03:32:15.692Z,23.50
2024-03-12T03:34:46.760Z,23.90
2024-03-12T03:37:15.460Z,25.60
2024-03-12T03:39:54.982Z,23.60
2024-03-12T03:42:28.680Z,26.00
2024-03-12T03:45:07.381Z,25.40
2024-03-12T03:47:36.393Z,22.30
2024-03-12T03:50:08.321Z,24.20
2024-03-12T03:52:36.308Z,24.40
2024-03-12T03:55:05.354Z,24.50
2024-03-12T03:57:34.024Z,25.90
2024-03-12T04:00:05.874Z,25.70
2024-03-12T04:02:35.519Z,24.80
2024-03-12T04:05:03.448Z,28.40
2024-03-12T04:07:46.453Z,25.60
2024-03-12T04:10:16.921Z,25.30
2024-03-12T04:12:48.642Z,23.60
2024-03-12T04:15:30.840Z,23.80
2024-03-12T04:17:59.530Z,24.30
2024-03-12T04:20:32.106Z,26.00
2024-03-12T04:23:05.194Z,23.60
2024-03-12T04:28:21.048Z,24.60
2024-03-12T04:30:54.121Z,22.10
2024-03-12T04:33:27.439Z,23.60
2024-03-12T04:36:04.000Z,23.20
2024-03-12T04:38:34.380Z,25.10
2024-03-12T04:41:16.580Z,24.60
2024-03-12T04:43:54.998Z,21.70
2024-03-12T04:46:32.082Z,23.20
2024-03-12T04:49:03.305Z,25.60
2024-03-12T04:51:41.714Z,24.30
2024-03-12T04:54:15.445Z,24.30
2024-03-12T04:56:43.883Z,26.00
2024-03-12T04:59:17.013Z,21.00
2024-03-12T05:02:01.419Z,21.70
2024-03-12T05:04:34.422Z,22.40
2024-03-12T05:07:08.000Z,22.20
2024-03-12T05:09:46.708Z,20.90
2024-03-12T05:12:19.577Z,20.70
2024-03-12T05:14:52.449Z,23.20
2024-03-12T05:17:20.323Z,22.40
2024-03-12T05:19:48.546Z,22.00
2024-03-12T05:22:17.849Z,22.30
2024-03-12T05:24:45.782Z,20.10
2024-03-12T05:27:34.694Z,19.60
2024-03-12T05:30:12.530Z,20.00
2024-03-12T05:32:45.084Z,20.50
2024-03-12T05:35:19.951Z,20.50
2024-03-12T05:38:10.854Z,21.30
2024-03-12T05:40:48.226Z,20.00
2024-03-12T05:43:46.638Z,17.40
2024-03-12T05:46:37.029Z,17.70
2024-03-12T05:49:11.458Z,20.20
2024-03-12T05:51:47.286Z,17.80
2024-03-12T05:54:15.763Z,19.30
2024-03-12T05:56:48.964Z,18.10
2024-03-12T05:59:22.948Z,17.60
2024-03-12T06:01:52.869Z,19.10
2024-03-12T06:04:20.830Z,17.20
2024-03-12T06:06:49.268Z,17.10
2024-03-12T06:09:24.035Z,17.60
2024-03-12T06:12:23.667Z,14.90
2024-03-12T06:14:52.050Z,17.70
2024-03-12T06:17:20.734Z,15.90
2024-03-12T06:19:52.090Z,16.00
2024-03-12T06:22:20.195Z,16.90
2024-03-12T06:24:49.614Z,17.20
2024-03-12T06:27:20.510Z,17.00
2024-03-12T06:29:52.939Z,15.20
2024-03-12T06:32:39.469Z,16.30
2024-03-12T06:35:09.284Z,17.60
2024-03-12T06:37:37.158Z,15.30
2024-03-12T06:40:10.671Z,15.90
2024-03-12T06:42:43.706Z,16.10
2024-03-12T06:45:13.246Z,15.70
2024-03-12T06:47:43.201Z,14.90
2024-03-12T06:50:11.757Z,16.10
2024-03-12T06:52:41.024Z,17.10
2024-03-12T06:55:19.590Z,15.50
2024-03-12T06:57:53.467Z,15.10
2024-03-12T07:00:41.575Z,13.80
2024-03-12T07:03:18.701Z,12.80
2024-03-12T07:05:50.185Z,12.70
2024-03-12T07:08:19.420Z,11.90
2024-03-12T07:10:47.956Z,11.80
2024-03-12T07:13:16.482Z,11.80
2024-03-12T07:15:48.446Z,11.30
2024-03-12T07:18:16.521Z,11.60
2024-03-12T07:20:48.768Z,11.00
2024-03-12T07:23:19.205Z,10.20
2024-03-12T07:25:47.524Z,12.30
2024-03-12T07:28:15.380Z,10.30
2024-03-12T07:30:46.882Z,12.30
2024-03-12T07:33:16.954Z,11.90
2024-03-12T07:35:45.341Z,11.40
2024-03-12T07:38:16.486Z,10.50
2024-03-12T07:40:47.646Z,10.70
2024-03-12T07:43:28.495Z,9.10
2024-03-12T07:46:28.933Z,10.40
2024-03-12T07:49:05.690Z,10.10
2024-03-12T07:51:44.359Z,10.90
2024-03-12T07:54:38.273Z,9.70
2024-03-12T07:57:09.239Z,10.40
2024-03-12T07:59:38.032Z,10.80
2024-03-12T08:02:14.007Z,11.90
2024-03-12T08:04:44.724Z,9.80
2024-03-12T08:07:16.756Z,12.90
2024-03-12T08:09:48.672Z,9.80
2024-03-12T08:12:25.012Z,10.30
2024-03-12T08:15:00.381Z,10.40
2024-03-12T08:17:31.522Z,9.00
2024-03-12T08:20:00.056Z,12.10
2024-03-12T08:22:30.922Z,11.30
2024-03-12T08:24:59.949Z,9.90
2024-03-12T08:27:28.415Z,10.40
2024-03-12T08:30:11.353Z,8.80
2024-03-12T08:32:41.674Z,10.10
2024-03-12T08:35:13.025Z,11.90
2024-03-12T08:37:40.859Z,9.10
2024-03-12T08:40:10.564Z,11.00
2024-03-12T08:42:47.725Z,10.20
2024-03-12T08:45:24.761Z,9.70
2024-03-12T08:47:53.666Z,9.90
2024-03-12T08:50:21.597Z,9.60
2024-03-12T08:52:49.461Z,11.70
2024-03-12T08:55:20.645Z,9.30
2024-03-12T08:57:59.372Z,10.50
2024-03-12T09:00:35.416Z,9.20
2024-03-12T09:03:07.244Z,9.10
2024-03-12T09:05:37.579Z,10.60
2024-03-12T09:10:42.651Z,9.20
2024-03-12T09:13:10.628Z,11.60
2024-03-12T09:15:39.018Z,9.20
2024-03-12T09:18:10.283Z,8.50
2024-03-12T09:20:38.494Z,9.50
2024-03-12T09:26:40.180Z,9.30
2024-03-12T09:29:14.713Z,10.20
2024-03-12T09:32:35.205Z,11.60
2024-03-12T09:35:05.253Z,10.00
2024-03-12T09:37:37.491Z,8.80
2024-03-12T09:40:07.371Z,9.70
2024-03-12T09:46:26.590Z,8.10
2024-03-12T09:48:56.345Z,9.40
2024-03-12T09:51:24.272Z,8.20
2024-03-12T09:53:52.758Z,8.70
2024-03-12T09:56:21.771Z,8.60
2024-03-12T09:58:50.231Z,8.30
2024-03-12T10:01:20.568Z,8.20
2024-03-12T10:03:48.537Z,9.10
2024-03-12T10:06:18.146Z,8.60
2024-03-12T10:08:46.302Z,8.80
2024-03-12T10:11:21.472Z,7.70
2024-03-12T10:14:00.526Z,7.60
2024-03-12T10:16:35.203Z,8.60
2024-03-12T10:19:13.553Z,6.90
2024-03-12T10:21:47.047Z,7.50
2024-03-12T10:26:50.629Z,8.10
2024-03-12T10:29:25.062Z,7.00
2024-03-12T10:31:53.227Z,7.50
2024-03-12T10:34:50.275Z,11.20
2024-03-12T10:37:29.431Z,7.10
2024-03-12T10:40:18.805Z,6.80
2024-03-12T10:43:21.838Z,7.50
2024-03-12T10:46:15.784Z,6.40
2024-03-12T10:48:48.467Z,7.60
2024-03-12T10:54:18.733Z,6.30
2024-03-12T10:57:02.753Z,7.30
2024-03-12T10:59:34.278Z,7.80
2024-03-12T11:02:07.009Z,7.60
2024-03-12T11:14:43.104Z,7.00
2024-03-12T11:17:25.590Z,7.60
2024-03-12T11:22:54.309Z,9.10
2024-03-12T11:25:53.295Z,7.50
2024-03-12T11:31:49.772Z,8.00
2024-03-12T11:34:42.000Z,5.90
2024-03-12T11:40:52.882Z,6.00
2024-03-12T11:43:43.179Z,8.50
2024-03-12T11:46:14.081Z,6.50
2024-03-12T11:48:47.428Z,9.00
2024-03-12T11:54:52.397Z,5.80
2024-03-12T11:57:31.561Z,6.90
2024-03-12T12:00:28.655Z,6.20
2024-03-12T12:02:56.920Z,6.80
2024-03-12T12:05:30.832Z,5.90
2024-03-12T12:08:07.343Z,6.30
2024-03-12T12:10:35.300Z,7.40
2024-03-12T12:13:42.782Z,5.40
2024-03-12T12:16:53.937Z,6.70
2024-03-12T12:19:31.889Z,8.00
2024-03-12T12:22:04.782Z,5.30
2024-03-12T12:24:33.033Z,6.00
2024-03-12T12:27:01.313Z,6.60
2024-03-12T12:29:36.710Z,8.10
2024-03-12T12:32:06.606Z,5.70
2024-03-12T12:34:35.143Z,7.00
2024-03-12T12:37:03.747Z,5.30
2024-03-12T12:39:47.410Z,5.90
2024-03-12T12:42:23.023Z,7.00
2024-03-12T12:44:55.625Z,7.90
2024-03-12T12:47:49.603Z,5.20
2024-03-12T12:51:07.827Z,8.70
2024-03-12T12:54:31.023Z,7.30
2024-03-12T12:57:03.113Z,6.30
2024-03-12T12:59:40.501Z,7.20
2024-03-12T13:02:32.984Z,6.50
2024-03-12T13:05:08.105Z,7.80
2024-03-12T13:07:40.822Z,6.90
2024-03-12T13:10:41.875Z,5.80
2024-03-12T13:13:10.900Z,8.70
2024-03-12T13:15:38.868Z,7.10
2024-03-12T13:18:19.723Z,8.20
2024-03-12T13:20:53.095Z,5.70
2024-03-12T13:23:21.153Z,5.10
2024-03-12T13:25:52.819Z,5.80
2024-03-12T13:28:26.513Z,7.10
2024-03-12T13:30:59.716Z,6.50
2024-03-12T13:36:35.994Z,9.20
2024-03-12T13:39:09.922Z,6.00
2024-03-12T13:45:03.411Z,5.80
2024-03-12T13:47:34.355Z,5.90
2024-03-12T13:50:02.809Z,8.60
2024-03-12T13:52:32.557Z,7.50
2024-03-12T13:55:01.372Z,5.10
2024-03-12T13:57:32.156Z,8.70
2024-03-12T14:10:27.045Z,6.00
2024-03-12T14:12:58.791Z,6.90
2024-03-12T14:15:38.929Z,4.70
2024-03-12T14:18:08.481Z,7.40
2024-03-12T14:20:43.918Z,6.50
2024-03-12T14:23:12.046Z,5.70
2024-03-12T14:25:40.153Z,6.70
2024-03-12T14:31:00.965Z,10.40
2024-03-12T14:33:30.253Z,8.30
2024-03-12T14:35:58.517Z,8.60
2024-03-12T14:38:26.596Z,5.70
2024-03-12T14:40:57.401Z,8.20
2024-03-12T14:43:26.971Z,5.90
2024-03-12T14:45:56.591Z,8.70
2024-03-12T14:48:24.415Z,7.50
2024-03-12T14:50:52.789Z,5.90
2024-03-12T14:53:23.351Z,7.40
2024-03-12T14:55:53.537Z,7.00
2024-03-12T14:58:21.992Z,8.10
2024-03-12T15:00:50.622Z,5.90
2024-03-12T15:03:20.537Z,9.80
2024-03-12T15:05:49.877Z,6.70
2024-03-12T15:08:20.052Z,7.20
2024-03-12T15:10:48.201Z,6.90
2024-03-12T15:13:17.291Z,6.30
2024-03-12T15:15:45.935Z,21.10
2024-03-12T15:18:14.802Z,9.60
2024-03-12T15:20:44.296Z,6.90
2024-03-12T15:23:37.215Z,9.80
2024-03-12T15:26:06.723Z,9.80
2024-03-12T15:28:34.926Z,5.60
2024-03-12T15:31:05.331Z,9.30
2024-03-12T15:33:34.582Z,8.40
2024-03-12T15:36:02.634Z,5.40
2024-03-12T15:38:33.672Z,6.90
2024-03-12T15:41:01.548Z,6.10
2024-03-12T15:43:30.543Z,8.30
2024-03-12T15:45:59.524Z,9.00
2024-03-12T15:48:27.390Z,7.50
2024-03-12T15:50:56.500Z,9.40
2024-03-12T15:53:26.363Z,10.20
2024-03-12T15:55:56.847Z,7.70
2024-03-12T15:58:27.824Z,11.40
2024-03-12T16:00:58.445Z,9.30
2024-03-12T16:03:27.112Z,8.50
2024-03-12T16:06:20.992Z,8.00
2024-03-12T16:09:00.245Z,10.40
2024-03-12T16:11:28.541Z,8.20
2024-03-12T16:13:59.113Z,9.20
2024-03-12T16:16:26.970Z,11.90
2024-03-12T16:18:55.703Z,10.10
2024-03-12T16:21:25.027Z,9.40
2024-03-12T16:23:52.926Z,8.40
2024-03-12T16:26:20.803Z,7.50
2024-03-12T16:28:49.407Z,14.10
2024-03-12T16:31:17.691Z,8.30
2024-03-12T16:34:15.627Z,9.50
2024-03-12T16:36:45.870Z,10.50
2024-03-12T16:39:17.157Z,9.60
2024-03-12T16:42:20.498Z,10.20
2024-03-12T16:44:48.836Z,7.70
2024-03-12T16:48:39.685Z,10.50
2024-03-12T16:51:40.247Z,10.70
2024-03-12T16:54:12.627Z,10.50
2024-03-12T16:56:42.581Z,11.60
2024-03-12T16:59:38.063Z,14.60
2024-03-12T17:02:12.391Z,11.40
2024-03-12T17:04:43.638Z,8.00
2024-03-12T17:07:13.144Z,12.00
2024-03-12T17:09:43.349Z,9.90
2024-03-12T17:12:15.254Z,11.90
2024-03-12T17:14:46.518Z,11.20
2024-03-12T17:17:14.821Z,11.70
2024-03-12T17:19:44.364Z,11.80
2024-03-12T17:22:14.877Z,14.80
2024-03-12T17:24:47.866Z,10.30
2024-03-12T17:27:16.712Z,12.50
2024-03-12T17:29:44.931Z,12.20
2024-03-12T17:32:13.681Z,10.80
2024-03-12T17:35:35.687Z,11.50
2024-03-12T17:38:29.655Z,12.60
2024-03-12T17:40:59.871Z,13.40
2024-03-12T17:43:29.067Z,13.40
2024-03-12T17:45:57.904Z,18.70
2024-03-12T17:48:30.428Z,14.20
2024-03-12T17:51:00.623Z,16.40
2024-03-12T17:53:31.314Z,12.20
2024-03-12T17:57:42.047Z,14.00
2024-03-12T18:00:19.141Z,14.70
2024-03-12T18:03:12.650Z,13.20
2024-03-12T18:08:20.791Z,13.80
2024-03-12T18:10:49.302Z,16.00
2024-03-12T18:13:22.797Z,15.60
2024-03-12T18:15:56.181Z,17.00
2024-03-12T18:18:26.080Z,13.40
2024-03-12T18:21:05.596Z,14.70
2024-03-12T18:23:34.105Z,14.70
2024-03-12T18:26:02.082Z,14.50
2024-03-12T18:28:30.329Z,14.50
2024-03-12T18:30:59.987Z,13.30
2024-03-12T18:33:28.342Z,14.00
2024-03-12T18:35:57.143Z,14.80
2024-03-12T18:38:26.246Z,10.90
2024-03-12T18:40:54.934Z,12.90
2024-03-12T18:43:23.801Z,11.00
2024-03-12T18:45:56.527Z,11.80
2024-03-12T18:48:32.906Z,14.30
2024-03-12T18:51:11.066Z,15.80
2024-03-12T18:53:55.011Z,14.20
2024-03-12T18:56:23.805Z,12.40
2024-03-12T18:58:55.761Z,11.80
2024-03-12T19:01:25.969Z,12.30
2024-03-12T19:04:00.988Z,13.20
2024-03-12T19:06:29.700Z,13.30
2024-03-12T19:08:58.445Z,12.50
2024-03-12T19:11:28.187Z,15.20
2024-03-12T19:13:57.087Z,13.00
2024-03-12T19:16:25.064Z,12.60
2024-03-12T19:18:56.948Z,13.80
2024-03-12T19:21:37.902Z,15.40
2024-03-12T19:24:06.784Z,12.00
2024-03-12T19:26:35.061Z,12.30
2024-03-12T19:29:03.542Z,16.20
2024-03-12T19:31:32.288Z,13.00
2024-03-12T19:34:00.793Z,13.40
2024-03-12T19:36:29.324Z,15.50
2024-03-12T19:39:03.220Z,12.60
2024-03-12T19:41:31.920Z,15.90
2024-03-12T19:44:03.527Z,13.50
2024-03-12T19:46:32.076Z,13.40
2024-03-12T19:49:01.305Z,14.10
2024-03-12T19:51:29.913Z,12.50
2024-03-12T19:54:06.719Z,13.20
2024-03-12T19:56:34.785Z,14.90
2024-03-12T19:59:02.529Z,12.60
2024-03-12T20:05:03.709Z,13.50
2024-03-12T20:07:31.920Z,12.00
2024-03-12T20:10:00.833Z,14.30
2024-03-12T20:12:29.382Z,12.30
2024-03-12T20:14:58.341Z,15.10
2024-03-12T20:17:26.633Z,15.10
2024-03-12T20:23:38.078Z,14.70
2024-03-12T20:26:07.693Z,14.90
2024-03-12T20:31:38.464Z,14.60
2024-03-12T20:34:06.304Z,13.50
2024-03-12T20:36:34.427Z,13.00
2024-03-12T20:39:02.711Z,12.10
2024-03-12T20:41:30.493Z,12.10
2024-03-12T20:43:58.870Z,11.50
2024-03-12T20:46:32.369Z,11.40
2024-03-12T20:49:00.952Z,15.20
2024-03-12T20:51:29.315Z,11.90
2024-03-12T20:54:03.223Z,15.20
2024-03-12T20:56:31.631Z,15.80
2024-03-12T20:58:59.464Z,19.00
2024-03-12T21:01:27.839Z,18.30
2024-03-12T21:03:56.066Z,19.40
2024-03-12T21:06:24.509Z,19.60
2024-03-12T21:08:52.577Z,19.70
2024-03-12T21:11:20.963Z,19.20
2024-03-12T21:13:49.335Z,18.20
2024-03-12T21:16:22.669Z,19.30
2024-03-12T21:18:50.732Z,18.10
2024-03-12T21:21:19.070Z,16.40
2024-03-12T21:23:47.664Z,14.80
2024-03-12T21:26:22.591Z,15.80
2024-03-12T21:28:54.170Z,15.40
2024-03-12T21:31:42.605Z,14.90
2024-03-12T21:34:10.774Z,14.00
2024-03-12T21:36:42.409Z,14.70
2024-03-12T21:39:10.908Z,14.80
2024-03-12T21:41:44.507Z,15.90
2024-03-12T21:44:12.399Z,15.60
2024-03-12T21:46:40.366Z,14.60
2024-03-12T21:49:10.573Z,20.10
2024-03-12T21:51:39.720Z,15.40
2024-03-12T21:54:07.941Z,14.20
2024-03-12T21:56:35.808Z,15.50
2024-03-12T21:59:16.271Z,14.60
2024-03-12T22:01:44.201Z,16.30
2024-03-12T22:04:12.162Z,16.70
2024-03-12T22:06:50.447Z,16.80
2024-03-12T22:09:19.207Z,15.60
2024-03-12T22:11:46.964Z,16.20
2024-03-12T22:14:16.123Z,15.50
2024-03-12T22:16:49.156Z,16.00
2024-03-12T22:19:17.152Z,17.30
2024-03-12T22:21:49.194Z,16.90
2024-03-12T22:24:25.249Z,15.00
2024-03-12T22:26:53.530Z,14.30
2024-03-12T22:29:26.617Z,14.80
2024-03-12T22:31:55.404Z,14.90
2024-03-12T22:34:23.211Z,14.40
2024-03-12T22:36:52.631Z,15.60
2024-03-12T22:39:28.228Z,14.00
2024-03-12T22:42:03.465Z,16.90
2024-03-12T22:44:32.138Z,16.50
2024-03-12T22:47:08.418Z,16.50
2024-03-12T22:49:37.313Z,17.10
2024-03-12T22:52:10.504Z,20.00
2024-03-12T22:54:45.423Z,15.20
2024-03-12T22:57:14.310Z,15.00
2024-03-12T22:59:43.125Z,14.60
2024-03-12T23:02:19.478Z,13.70
2024-03-12T23:04:48.726Z,14.90
2024-03-12T23:07:17.881Z,14.00
2024-03-12T23:09:46.320Z,14.60
2024-03-12T23:12:14.322Z,14.60
2024-03-12T23:14:45.468Z,13.70
2024-03-12T23:17:16.101Z,13.70
2024-03-12T23:19:47.409Z,14.20
2024-03-12T23:22:17.555Z,14.20
2024-03-12T23:24:46.714Z,12.20
2024-03-12T23:27:15.042Z,15.70
2024-03-12T23:29:45.887Z,13.50
2024-03-12T23:32:16.745Z,13.30
2024-03-12T23:34:49.915Z,14.50
2024-03-12T23:37:21.029Z,20.20
2024-03-12T23:39:52.447Z,13.10
2024-03-12T23:42:21.195Z,15.70
2024-03-12T23:44:49.263Z,15.10
2024-03-12T23:47:17.036Z,13.70
2024-03-12T23:49:45.101Z,12.40
2024-03-12T23:52:12.898Z,16.60
2024-03-12T23:54:46.250Z,13.60
2024-03-12T23:57:17.212Z,13.90
2024-03-12T23:59:50.710Z,15.20
